sensor_id;sensor_type;location;lat;lon;timestamp;P1;durP1;ratioP1;P2;durP2;ratioP2
3791;SDS011;1911;53.768;11.474;2024-03-29T00:00:52;5.33;;;4.00;;
3791;SDS011;1911;53.768;11.474;2024-03-29T00:03:18;5.73;;;4.33;;
3791;SDS011;1911;53.768;11.474;2024-03-29T00:05:44;4.20;;;3.80;;
3791;SDS011;1911;53.768;11.474;2024-03-29T00:08:10;6.37;;;3.37;;
3791;SDS011;1911;53.768;11.474;2024-03-29T00:10:36;4.80;;;3.87;;
3791;SDS011;1911;53.768;11.474;2024-03-29T00:13:02;6.40;;;3.07;;
3791;SDS011;1911;53.768;11.474;2024-03-29T00:15:27;4.53;;;3.40;;
3791;SDS011;1911;53.768;11.474;2024-03-29T00:17:54;5.43;;;2.50;;
3791;SDS011;1911;53.768;11.474;2024-03-29T00:20:19;6.60;;;2.90;;
3791;SDS011;1911;53.768;11.474;2024-03-29T00:22:46;5.57;;;2.90;;
3791;SDS011;1911;53.768;11.474;2024-03-29T00:25:12;3.80;;;2.70;;
3791;SDS011;1911;53.768;11.474;2024-03-29T00:27:37;7.77;;;3.30;;
3791;SDS011;1911;53.768;11.474;2024-03-29T00:30:03;2.80;;;2.50;;
3791;SDS011;1911;53.768;11.474;2024-03-29T00:32:29;6.07;;;3.20;;
3791;SDS011;1911;53.768;11.474;2024-03-29T00:34:55;4.23;;;2.80;;
3791;SDS011;1911;53.768;11.474;2024-03-29T00:37:22;4.73;;;3.00;;
3791;SDS011;1911;53.768;11.474;2024-03-29T00:39:49;2.80;;;2.30;;
3791;SDS011;1911;53.768;11.474;2024-03-29T00:42:14;3.70;;;2.83;;
3791;SDS011;1911;53.768;11.474;2024-03-29T00:44:41;4.23;;;2.50;;
3791;SDS011;1911;53.768;11.474;2024-03-29T00:47:08;3.20;;;2.77;;
3791;SDS011;1911;53.768;11.474;2024-03-29T00:49:34;3.10;;;2.27;;
3791;SDS011;1911;53.768;11.474;2024-03-29T00:52:00;4.73;;;2.57;;
3791;SDS011;1911;53.768;11.474;2024-03-29T00:54:27;2.90;;;2.30;;
3791;SDS011;1911;53.768;11.474;2024-03-29T00:56:53;2.83;;;2.53;;
3791;SDS011;1911;53.768;11.474;2024-03-29T00:59:19;3.93;;;2.60;;
3791;SDS011;1911;53.768;11.474;2024-03-29T01:01:45;4.03;;;2.73;;
3791;SDS011;1911;53.768;11.474;2024-03-29T01:04:11;6.43;;;2.70;;
3791;SDS011;1911;53.768;11.474;2024-03-29T01:06:37;3.60;;;2.43;;
3791;SDS011;1911;53.768;11.474;2024-03-29T01:09:04;3.27;;;1.90;;
3791;SDS011;1911;53.768;11.474;2024-03-29T01:11:30;4.63;;;2.00;;
3791;SDS011;1911;53.768;11.474;2024-03-29T01:13:56;1.93;;;1.30;;
3791;SDS011;1911;53.768;11.474;2024-03-29T01:16:22;4.83;;;1.80;;
3791;SDS011;1911;53.768;11.474;2024-03-29T01:18:48;2.70;;;2.00;;
3791;SDS011;1911;53.768;11.474;2024-03-29T01:21:13;4.57;;;2.20;;
3791;SDS011;1911;53.768;11.474;2024-03-29T01:23:39;3.23;;;1.83;;
3791;SDS011;1911;53.768;11.474;2024-03-29T01:26:05;4.20;;;2.50;;
3791;SDS011;1911;53.768;11.474;2024-03-29T01:28:32;3.70;;;1.80;;
3791;SDS011;1911;53.768;11.474;2024-03-29T01:30:57;3.17;;;1.80;;
3791;SDS011;1911;53.768;11.474;2024-03-29T01:33:26;4.93;;;2.03;;
3791;SDS011;1911;53.768;11.474;2024-03-29T01:35:52;2.43;;;1.60;;
3791;SDS011;1911;53.768;11.474;2024-03-29T01:38:18;1.83;;;1.10;;
3791;SDS011;1911;53.768;11.474;2024-03-29T01:40:44;2.63;;;1.50;;
3791;SDS011;1911;53.768;11.474;2024-03-29T01:43:10;2.53;;;1.70;;
3791;SDS011;1911;53.768;11.474;2024-03-29T01:45:36;3.53;;;1.40;;
3791;SDS011;1911;53.768;11.474;2024-03-29T01:48:04;2.03;;;1.67;;
3791;SDS011;1911;53.768;11.474;2024-03-29T01:50:31;2.53;;;1.30;;
3791;SDS011;1911;53.768;11.474;2024-03-29T01:52:57;3.00;;;1.40;;
3791;SDS011;1911;53.768;11.474;2024-03-29T01:55:23;1.40;;;1.03;;
3791;SDS011;1911;53.768;11.474;2024-03-29T01:57:51;1.67;;;1.10;;
3791;SDS011;1911;53.768;11.474;2024-03-29T02:00:18;3.53;;;1.80;;
3791;SDS011;1911;53.768;11.474;2024-03-29T02:02:45;1.90;;;1.53;;
3791;SDS011;1911;53.768;11.474;2024-03-29T02:05:10;1.77;;;1.20;;
3791;SDS011;1911;53.768;11.474;2024-03-29T02:07:36;1.90;;;1.30;;
3791;SDS011;1911;53.768;11.474;2024-03-29T02:10:03;1.70;;;1.20;;
3791;SDS011;1911;53.768;11.474;2024-03-29T02:12:31;1.93;;;1.20;;
3791;SDS011;1911;53.768;11.474;2024-03-29T02:14:56;2.10;;;1.50;;
3791;SDS011;1911;53.768;11.474;2024-03-29T02:17:23;2.40;;;1.17;;
3791;SDS011;1911;53.768;11.474;2024-03-29T02:19:48;3.00;;;1.40;;
3791;SDS011;1911;53.768;11.474;2024-03-29T02:22:14;1.60;;;1.20;;
3791;SDS011;1911;53.768;11.474;2024-03-29T02:24:41;2.70;;;2.10;;
3791;SDS011;1911;53.768;11.474;2024-03-29T02:27:07;1.53;;;1.27;;
3791;SDS011;1911;53.768;11.474;2024-03-29T02:29:32;1.57;;;1.30;;
3791;SDS011;1911;53.768;11.474;2024-03-29T02:32:02;4.07;;;1.20;;
3791;SDS011;1911;53.768;11.474;2024-03-29T02:34:28;4.40;;;1.30;;
3791;SDS011;1911;53.768;11.474;2024-03-29T02:36:54;1.43;;;1.13;;
3791;SDS011;1911;53.768;11.474;2024-03-29T02:39:19;1.83;;;1.30;;
3791;SDS011;1911;53.768;11.474;2024-03-29T02:41:45;1.93;;;1.37;;
3791;SDS011;1911;53.768;11.474;2024-03-29T02:44:11;6.17;;;1.83;;
3791;SDS011;1911;53.768;11.474;2024-03-29T02:46:36;1.60;;;1.10;;
3791;SDS011;1911;53.768;11.474;2024-03-29T02:49:02;3.13;;;1.40;;
3791;SDS011;1911;53.768;11.474;2024-03-29T02:51:28;3.87;;;1.10;;
3791;SDS011;1911;53.768;11.474;2024-03-29T02:53:53;4.53;;;1.10;;
3791;SDS011;1911;53.768;11.474;2024-03-29T02:56:19;4.00;;;1.13;;
3791;SDS011;1911;53.768;11.474;2024-03-29T02:58:47;5.53;;;1.20;;
3791;SDS011;1911;53.768;11.474;2024-03-29T03:01:13;2.60;;;0.80;;
3791;SDS011;1911;53.768;11.474;2024-03-29T03:03:38;1.20;;;0.70;;
3791;SDS011;1911;53.768;11.474;2024-03-29T03:06:04;2.37;;;1.30;;
3791;SDS011;1911;53.768;11.474;2024-03-29T03:08:30;6.83;;;1.47;;
3791;SDS011;1911;53.768;11.474;2024-03-29T03:11:14;1.20;;;1.00;;
3791;SDS011;1911;53.768;11.474;2024-03-29T03:13:39;1.63;;;0.90;;
3791;SDS011;1911;53.768;11.474;2024-03-29T03:16:05;1.33;;;0.90;;
3791;SDS011;1911;53.768;11.474;2024-03-29T03:18:31;1.57;;;0.97;;
3791;SDS011;1911;53.768;11.474;2024-03-29T03:20:56;2.77;;;1.10;;
3791;SDS011;1911;53.768;11.474;2024-03-29T03:23:25;3.07;;;1.20;;
3791;SDS011;1911;53.768;11.474;2024-03-29T03:25:59;3.53;;;1.33;;
3791;SDS011;1911;53.768;11.474;2024-03-29T03:28:26;6.57;;;1.53;;
3791;SDS011;1911;53.768;11.474;2024-03-29T03:30:53;1.43;;;0.80;;
3791;SDS011;1911;53.768;11.474;2024-03-29T03:33:19;1.83;;;1.00;;
3791;SDS011;1911;53.768;11.474;2024-03-29T03:35:45;2.33;;;1.20;;
3791;SDS011;1911;53.768;11.474;2024-03-29T03:38:11;1.70;;;1.03;;
3791;SDS011;1911;53.768;11.474;2024-03-29T03:40:37;2.17;;;1.00;;
3791;SDS011;1911;53.768;11.474;2024-03-29T03:43:03;2.33;;;1.30;;
3791;SDS011;1911;53.768;11.474;2024-03-29T03:45:37;2.47;;;1.00;;
3791;SDS011;1911;53.768;11.474;2024-03-29T03:48:04;5.43;;;1.13;;
3791;SDS011;1911;53.768;11.474;2024-03-29T03:50:35;2.90;;;0.90;;
3791;SDS011;1911;53.768;11.474;2024-03-29T03:53:01;3.47;;;1.10;;
3791;SDS011;1911;53.768;11.474;2024-03-29T03:55:26;3.33;;;1.03;;
3791;SDS011;1911;53.768;11.474;2024-03-29T03:57:52;3.43;;;1.10;;
3791;SDS011;1911;53.768;11.474;2024-03-29T04:00:19;1.30;;;0.90;;
3791;SDS011;1911;53.768;11.474;2024-03-29T04:02:49;4.60;;;1.07;;
3791;SDS011;1911;53.768;11.474;2024-03-29T04:05:18;2.17;;;1.00;;
3791;SDS011;1911;53.768;11.474;2024-03-29T04:07:44;1.70;;;1.10;;
3791;SDS011;1911;53.768;11.474;2024-03-29T04:10:10;3.07;;;1.50;;
3791;SDS011;1911;53.768;11.474;2024-03-29T04:12:36;3.33;;;0.97;;
3791;SDS011;1911;53.768;11.474;2024-03-29T04:15:02;1.33;;;0.93;;
3791;SDS011;1911;53.768;11.474;2024-03-29T04:17:28;2.70;;;1.20;;
3791;SDS011;1911;53.768;11.474;2024-03-29T04:19:57;2.47;;;1.30;;
3791;SDS011;1911;53.768;11.474;2024-03-29T04:22:24;3.37;;;0.90;;
3791;SDS011;1911;53.768;11.474;2024-03-29T04:24:50;2.70;;;1.00;;
3791;SDS011;1911;53.768;11.474;2024-03-29T04:27:15;8.80;;;1.00;;
3791;SDS011;1911;53.768;11.474;2024-03-29T04:29:41;5.60;;;1.37;;
3791;SDS011;1911;53.768;11.474;2024-03-29T04:32:07;3.90;;;1.47;;
3791;SDS011;1911;53.768;11.474;2024-03-29T04:34:33;2.60;;;1.37;;
3791;SDS011;1911;53.768;11.474;2024-03-29T04:36:59;2.13;;;1.10;;
3791;SDS011;1911;53.768;11.474;2024-03-29T04:39:24;2.93;;;1.13;;
3791;SDS011;1911;53.768;11.474;2024-03-29T04:41:50;1.87;;;1.00;;
3791;SDS011;1911;53.768;11.474;2024-03-29T04:44:23;3.77;;;1.30;;
3791;SDS011;1911;53.768;11.474;2024-03-29T04:46:52;1.53;;;1.00;;
3791;SDS011;1911;53.768;11.474;2024-03-29T04:49:19;6.50;;;1.00;;
3791;SDS011;1911;53.768;11.474;2024-03-29T04:51:51;4.10;;;0.97;;
3791;SDS011;1911;53.768;11.474;2024-03-29T04:54:17;4.50;;;1.10;;
3791;SDS011;1911;53.768;11.474;2024-03-29T04:56:43;4.67;;;1.60;;
3791;SDS011;1911;53.768;11.474;2024-03-29T04:59:08;5.23;;;1.17;;
3791;SDS011;1911;53.768;11.474;2024-03-29T05:01:36;5.03;;;1.17;;
3791;SDS011;1911;53.768;11.474;2024-03-29T05:04:03;3.77;;;1.30;;
3791;SDS011;1911;53.768;11.474;2024-03-29T05:06:29;4.13;;;1.17;;
3791;SDS011;1911;53.768;11.474;2024-03-29T05:08:55;2.83;;;1.40;;
3791;SDS011;1911;53.768;11.474;2024-03-29T05:11:21;5.30;;;1.00;;
3791;SDS011;1911;53.768;11.474;2024-03-29T05:13:46;2.03;;;0.97;;
3791;SDS011;1911;53.768;11.474;2024-03-29T05:16:12;4.03;;;1.20;;
3791;SDS011;1911;53.768;11.474;2024-03-29T05:18:38;1.20;;;0.90;;
3791;SDS011;1911;53.768;11.474;2024-03-29T05:21:03;2.30;;;1.13;;
3791;SDS011;1911;53.768;11.474;2024-03-29T05:23:29;1.83;;;0.80;;
3791;SDS011;1911;53.768;11.474;2024-03-29T05:25:55;3.33;;;1.03;;
3791;SDS011;1911;53.768;11.474;2024-03-29T05:28:21;3.03;;;0.93;;
3791;SDS011;1911;53.768;11.474;2024-03-29T05:30:46;2.00;;;1.17;;
3791;SDS011;1911;53.768;11.474;2024-03-29T05:33:12;2.73;;;1.27;;
3791;SDS011;1911;53.768;11.474;2024-03-29T05:35:38;2.50;;;0.77;;
3791;SDS011;1911;53.768;11.474;2024-03-29T05:38:03;3.50;;;1.30;;
3791;SDS011;1911;53.768;11.474;2024-03-29T05:40:29;4.10;;;1.30;;
3791;SDS011;1911;53.768;11.474;2024-03-29T05:42:55;2.90;;;1.23;;
3791;SDS011;1911;53.768;11.474;2024-03-29T05:45:24;2.30;;;0.90;;
3791;SDS011;1911;53.768;11.474;2024-03-29T05:47:52;3.47;;;1.10;;
3791;SDS011;1911;53.768;11.474;2024-03-29T05:50:22;3.50;;;1.23;;
3791;SDS011;1911;53.768;11.474;2024-03-29T05:52:48;1.83;;;1.03;;
3791;SDS011;1911;53.768;11.474;2024-03-29T05:55:15;4.20;;;1.30;;
3791;SDS011;1911;53.768;11.474;2024-03-29T05:57:40;1.53;;;0.83;;
3791;SDS011;1911;53.768;11.474;2024-03-29T06:00:07;1.40;;;1.13;;
3791;SDS011;1911;53.768;11.474;2024-03-29T06:02:36;1.70;;;0.93;;
3791;SDS011;1911;53.768;11.474;2024-03-29T06:05:01;1.10;;;0.70;;
3791;SDS011;1911;53.768;11.474;2024-03-29T06:07:27;2.40;;;0.93;;
3791;SDS011;1911;53.768;11.474;2024-03-29T06:09:54;5.60;;;1.40;;
3791;SDS011;1911;53.768;11.474;2024-03-29T06:12:20;1.77;;;1.03;;
3791;SDS011;1911;53.768;11.474;2024-03-29T06:14:45;2.00;;;0.80;;
3791;SDS011;1911;53.768;11.474;2024-03-29T06:17:30;1.67;;;0.90;;
3791;SDS011;1911;53.768;11.474;2024-03-29T06:19:55;6.40;;;1.07;;
3791;SDS011;1911;53.768;11.474;2024-03-29T06:22:22;4.00;;;1.00;;
3791;SDS011;1911;53.768;11.474;2024-03-29T06:24:49;2.60;;;1.63;;
3791;SDS011;1911;53.768;11.474;2024-03-29T06:27:17;2.80;;;1.33;;
3791;SDS011;1911;53.768;11.474;2024-03-29T06:29:46;3.40;;;0.90;;
3791;SDS011;1911;53.768;11.474;2024-03-29T06:32:12;4.13;;;1.30;;
3791;SDS011;1911;53.768;11.474;2024-03-29T06:34:37;9.20;;;1.47;;
3791;SDS011;1911;53.768;11.474;2024-03-29T06:37:03;2.30;;;1.07;;
3791;SDS011;1911;53.768;11.474;2024-03-29T06:39:30;1.53;;;0.80;;
3791;SDS011;1911;53.768;11.474;2024-03-29T06:41:55;4.33;;;1.33;;
3791;SDS011;1911;53.768;11.474;2024-03-29T06:44:21;1.63;;;1.30;;
3791;SDS011;1911;53.768;11.474;2024-03-29T06:46:46;2.50;;;1.13;;
3791;SDS011;1911;53.768;11.474;2024-03-29T06:49:12;2.13;;;1.00;;
3791;SDS011;1911;53.768;11.474;2024-03-29T06:51:41;2.70;;;1.17;;
3791;SDS011;1911;53.768;11.474;2024-03-29T06:54:06;2.60;;;0.97;;
3791;SDS011;1911;53.768;11.474;2024-03-29T06:56:32;4.53;;;1.10;;
3791;SDS011;1911;53.768;11.474;2024-03-29T06:58:58;2.23;;;1.00;;
3791;SDS011;1911;53.768;11.474;2024-03-29T07:01:24;2.17;;;1.00;;
3791;SDS011;1911;53.768;11.474;2024-03-29T07:03:49;5.53;;;0.90;;
3791;SDS011;1911;53.768;11.474;2024-03-29T07:06:15;5.30;;;1.57;;
3791;SDS011;1911;53.768;11.474;2024-03-29T07:08:40;4.20;;;0.90;;
3791;SDS011;1911;53.768;11.474;2024-03-29T07:11:06;3.80;;;1.40;;
3791;SDS011;1911;53.768;11.474;2024-03-29T07:13:31;2.53;;;0.87;;
3791;SDS011;1911;53.768;11.474;2024-03-29T07:16:00;4.30;;;0.87;;
3791;SDS011;1911;53.768;11.474;2024-03-29T07:18:26;1.63;;;1.13;;
3791;SDS011;1911;53.768;11.474;2024-03-29T07:20:52;3.33;;;1.07;;
3791;SDS011;1911;53.768;11.474;2024-03-29T07:23:18;1.97;;;0.93;;
3791;SDS011;1911;53.768;11.474;2024-03-29T07:25:44;1.70;;;0.97;;
3791;SDS011;1911;53.768;11.474;2024-03-29T07:28:10;2.40;;;1.13;;
3791;SDS011;1911;53.768;11.474;2024-03-29T07:30:39;2.07;;;1.80;;
3791;SDS011;1911;53.768;11.474;2024-03-29T07:33:09;2.97;;;1.40;;
3791;SDS011;1911;53.768;11.474;2024-03-29T07:35:35;2.10;;;1.23;;
3791;SDS011;1911;53.768;11.474;2024-03-29T07:38:03;2.80;;;0.90;;
3791;SDS011;1911;53.768;11.474;2024-03-29T07:40:28;5.23;;;1.10;;
3791;SDS011;1911;53.768;11.474;2024-03-29T07:42:54;1.77;;;0.77;;
3791;SDS011;1911;53.768;11.474;2024-03-29T07:45:20;1.80;;;1.03;;
3791;SDS011;1911;53.768;11.474;2024-03-29T07:47:46;1.20;;;0.90;;
3791;SDS011;1911;53.768;11.474;2024-03-29T07:50:17;3.83;;;1.20;;
3791;SDS011;1911;53.768;11.474;2024-03-29T07:52:46;1.10;;;0.93;;
3791;SDS011;1911;53.768;11.474;2024-03-29T07:55:12;3.60;;;1.30;;
3791;SDS011;1911;53.768;11.474;2024-03-29T07:57:38;3.33;;;1.33;;
3791;SDS011;1911;53.768;11.474;2024-03-29T08:00:04;6.80;;;1.27;;
3791;SDS011;1911;53.768;11.474;2024-03-29T08:02:31;1.27;;;1.00;;
3791;SDS011;1911;53.768;11.474;2024-03-29T08:04:57;1.40;;;0.90;;
3791;SDS011;1911;53.768;11.474;2024-03-29T08:07:23;1.97;;;0.93;;
3791;SDS011;1911;53.768;11.474;2024-03-29T08:09:49;3.67;;;0.90;;
3791;SDS011;1911;53.768;11.474;2024-03-29T08:12:15;1.70;;;1.07;;
3791;SDS011;1911;53.768;11.474;2024-03-29T08:14:41;1.70;;;1.03;;
3791;SDS011;1911;53.768;11.474;2024-03-29T08:17:07;3.20;;;1.10;;
3791;SDS011;1911;53.768;11.474;2024-03-29T08:19:36;3.00;;;1.03;;
3791;SDS011;1911;53.768;11.474;2024-03-29T08:22:04;1.60;;;0.97;;
3791;SDS011;1911;53.768;11.474;2024-03-29T08:24:30;3.10;;;1.47;;
3791;SDS011;1911;53.768;11.474;2024-03-29T08:26:56;2.43;;;1.20;;
3791;SDS011;1911;53.768;11.474;2024-03-29T08:29:23;2.90;;;1.17;;
3791;SDS011;1911;53.768;11.474;2024-03-29T08:31:49;3.13;;;1.07;;
3791;SDS011;1911;53.768;11.474;2024-03-29T08:34:15;3.07;;;0.80;;
3791;SDS011;1911;53.768;11.474;2024-03-29T08:36:40;3.30;;;1.20;;
3791;SDS011;1911;53.768;11.474;2024-03-29T08:39:06;1.97;;;0.90;;
3791;SDS011;1911;53.768;11.474;2024-03-29T08:41:31;2.40;;;0.80;;
3791;SDS011;1911;53.768;11.474;2024-03-29T08:43:57;2.50;;;0.70;;
3791;SDS011;1911;53.768;11.474;2024-03-29T08:46:23;2.60;;;0.70;;
3791;SDS011;1911;53.768;11.474;2024-03-29T08:48:48;2.80;;;1.20;;
3791;SDS011;1911;53.768;11.474;2024-03-29T08:51:14;2.23;;;1.03;;
3791;SDS011;1911;53.768;11.474;2024-03-29T08:53:40;2.13;;;0.70;;
3791;SDS011;1911;53.768;11.474;2024-03-29T08:56:06;3.27;;;0.63;;
3791;SDS011;1911;53.768;11.474;2024-03-29T08:58:32;2.17;;;0.83;;
3791;SDS011;1911;53.768;11.474;2024-03-29T09:00:57;2.63;;;0.73;;
3791;SDS011;1911;53.768;11.474;2024-03-29T09:03:23;2.30;;;0.90;;
3791;SDS011;1911;53.768;11.474;2024-03-29T09:05:50;2.03;;;1.13;;
3791;SDS011;1911;53.768;11.474;2024-03-29T09:08:16;2.50;;;0.90;;
3791;SDS011;1911;53.768;11.474;2024-03-29T09:10:43;2.67;;;0.50;;
3791;SDS011;1911;53.768;11.474;2024-03-29T09:13:08;1.93;;;0.73;;
3791;SDS011;1911;53.768;11.474;2024-03-29T09:15:35;3.50;;;0.80;;
3791;SDS011;1911;53.768;11.474;2024-03-29T09:18:01;1.53;;;0.80;;
3791;SDS011;1911;53.768;11.474;2024-03-29T09:20:34;1.77;;;0.90;;
3791;SDS011;1911;53.768;11.474;2024-03-29T09:23:00;1.20;;;0.80;;
3791;SDS011;1911;53.768;11.474;2024-03-29T09:25:26;3.87;;;0.70;;
3791;SDS011;1911;53.768;11.474;2024-03-29T09:27:52;2.07;;;0.80;;
3791;SDS011;1911;53.768;11.474;2024-03-29T09:30:17;1.27;;;0.70;;
3791;SDS011;1911;53.768;11.474;2024-03-29T09:32:44;1.10;;;0.70;;
3791;SDS011;1911;53.768;11.474;2024-03-29T09:35:10;5.20;;;1.20;;
3791;SDS011;1911;53.768;11.474;2024-03-29T09:37:36;1.53;;;0.70;;
3791;SDS011;1911;53.768;11.474;2024-03-29T09:40:03;1.43;;;0.60;;
3791;SDS011;1911;53.768;11.474;2024-03-29T09:42:29;1.77;;;0.70;;
3791;SDS011;1911;53.768;11.474;2024-03-29T09:44:57;2.53;;;1.00;;
3791;SDS011;1911;53.768;11.474;2024-03-29T09:47:24;3.33;;;0.83;;
3791;SDS011;1911;53.768;11.474;2024-03-29T09:49:52;1.87;;;0.87;;
3791;SDS011;1911;53.768;11.474;2024-03-29T09:52:20;1.03;;;0.80;;
3791;SDS011;1911;53.768;11.474;2024-03-29T09:54:46;1.57;;;0.73;;
3791;SDS011;1911;53.768;11.474;2024-03-29T09:57:12;2.73;;;0.80;;
3791;SDS011;1911;53.768;11.474;2024-03-29T09:59:42;2.80;;;0.90;;
3791;SDS011;1911;53.768;11.474;2024-03-29T10:02:16;1.37;;;0.70;;
3791;SDS011;1911;53.768;11.474;2024-03-29T10:04:45;2.90;;;0.90;;
3791;SDS011;1911;53.768;11.474;2024-03-29T10:07:13;2.80;;;0.90;;
3791;SDS011;1911;53.768;11.474;2024-03-29T10:09:40;3.43;;;1.03;;
3791;SDS011;1911;53.768;11.474;2024-03-29T10:12:08;3.33;;;1.40;;
3791;SDS011;1911;53.768;11.474;2024-03-29T10:14:46;4.40;;;1.43;;
3791;SDS011;1911;53.768;11.474;2024-03-29T10:17:17;1.80;;;0.80;;
3791;SDS011;1911;53.768;11.474;2024-03-29T10:19:44;3.20;;;0.80;;
3791;SDS011;1911;53.768;11.474;2024-03-29T10:22:11;2.30;;;0.80;;
3791;SDS011;1911;53.768;11.474;2024-03-29T10:24:37;1.90;;;1.00;;
3791;SDS011;1911;53.768;11.474;2024-03-29T10:27:03;2.43;;;0.90;;
3791;SDS011;1911;53.768;11.474;2024-03-29T10:29:29;2.50;;;1.37;;
3791;SDS011;1911;53.768;11.474;2024-03-29T10:31:57;4.77;;;1.07;;
3791;SDS011;1911;53.768;11.474;2024-03-29T10:34:26;2.30;;;0.80;;
3791;SDS011;1911;53.768;11.474;2024-03-29T10:36:54;1.77;;;1.03;;
3791;SDS011;1911;53.768;11.474;2024-03-29T10:39:20;1.93;;;1.10;;
3791;SDS011;1911;53.768;11.474;2024-03-29T10:41:46;0.93;;;0.70;;
3791;SDS011;1911;53.768;11.474;2024-03-29T10:44:12;3.90;;;1.20;;
3791;SDS011;1911;53.768;11.474;2024-03-29T10:46:39;1.67;;;1.00;;
3791;SDS011;1911;53.768;11.474;2024-03-29T10:49:08;4.67;;;1.33;;
3791;SDS011;1911;53.768;11.474;2024-03-29T10:51:38;3.50;;;2.00;;
3791;SDS011;1911;53.768;11.474;2024-03-29T10:54:05;1.77;;;1.00;;
3791;SDS011;1911;53.768;11.474;2024-03-29T10:56:35;3.97;;;1.10;;
3791;SDS011;1911;53.768;11.474;2024-03-29T10:59:21;1.70;;;1.07;;
3791;SDS011;1911;53.768;11.474;2024-03-29T11:01:52;1.60;;;0.90;;
3791;SDS011;1911;53.768;11.474;2024-03-29T11:04:27;1.83;;;1.10;;
3791;SDS011;1911;53.768;11.474;2024-03-29T11:06:59;2.67;;;1.30;;
3791;SDS011;1911;53.768;11.474;2024-03-29T11:09:30;1.83;;;1.00;;
3791;SDS011;1911;53.768;11.474;2024-03-29T11:11:58;3.47;;;1.03;;
3791;SDS011;1911;53.768;11.474;2024-03-29T11:14:31;3.30;;;0.90;;
3791;SDS011;1911;53.768;11.474;2024-03-29T11:17:02;4.60;;;1.20;;
3791;SDS011;1911;53.768;11.474;2024-03-29T11:19:28;1.90;;;1.20;;
3791;SDS011;1911;53.768;11.474;2024-03-29T11:21:55;1.30;;;0.97;;
3791;SDS011;1911;53.768;11.474;2024-03-29T11:24:22;5.80;;;1.20;;
3791;SDS011;1911;53.768;11.474;2024-03-29T11:26:48;1.73;;;1.43;;
3791;SDS011;1911;53.768;11.474;2024-03-29T11:29:20;2.33;;;1.30;;
3791;SDS011;1911;53.768;11.474;2024-03-29T11:31:47;2.70;;;1.17;;
3791;SDS011;1911;53.768;11.474;2024-03-29T11:34:18;1.50;;;1.00;;
3791;SDS011;1911;53.768;11.474;2024-03-29T11:36:45;3.97;;;1.00;;
3791;SDS011;1911;53.768;11.474;2024-03-29T11:39:19;6.73;;;1.00;;
3791;SDS011;1911;53.768;11.474;2024-03-29T11:41:49;3.13;;;1.20;;
3791;SDS011;1911;53.768;11.474;2024-03-29T11:44:15;2.80;;;0.87;;
3791;SDS011;1911;53.768;11.474;2024-03-29T11:46:42;1.87;;;0.93;;
3791;SDS011;1911;53.768;11.474;2024-03-29T11:49:09;3.03;;;1.40;;
3791;SDS011;1911;53.768;11.474;2024-03-29T11:51:34;1.67;;;1.00;;
3791;SDS011;1911;53.768;11.474;2024-03-29T11:54:00;1.60;;;0.90;;
3791;SDS011;1911;53.768;11.474;2024-03-29T11:56:27;4.07;;;1.30;;
3791;SDS011;1911;53.768;11.474;2024-03-29T11:58:53;3.13;;;1.20;;
3791;SDS011;1911;53.768;11.474;2024-03-29T12:01:24;7.17;;;1.60;;
3791;SDS011;1911;53.768;11.474;2024-03-29T12:03:50;5.23;;;1.07;;
3791;SDS011;1911;53.768;11.474;2024-03-29T12:06:16;3.17;;;1.10;;
3791;SDS011;1911;53.768;11.474;2024-03-29T12:08:43;1.87;;;0.90;;
3791;SDS011;1911;53.768;11.474;2024-03-29T12:11:09;3.00;;;1.77;;
3791;SDS011;1911;53.768;11.474;2024-03-29T12:13:35;1.73;;;1.17;;
3791;SDS011;1911;53.768;11.474;2024-03-29T12:16:01;2.23;;;1.20;;
3791;SDS011;1911;53.768;11.474;2024-03-29T12:18:28;2.97;;;1.10;;
3791;SDS011;1911;53.768;11.474;2024-03-29T12:20:56;2.83;;;1.37;;
3791;SDS011;1911;53.768;11.474;2024-03-29T12:23:22;2.50;;;1.10;;
3791;SDS011;1911;53.768;11.474;2024-03-29T12:25:48;1.60;;;1.03;;
3791;SDS011;1911;53.768;11.474;2024-03-29T12:28:15;2.73;;;1.10;;
3791;SDS011;1911;53.768;11.474;2024-03-29T12:30:42;2.33;;;1.00;;
3791;SDS011;1911;53.768;11.474;2024-03-29T12:33:12;2.70;;;1.03;;
3791;SDS011;1911;53.768;11.474;2024-03-29T12:35:49;1.40;;;1.00;;
3791;SDS011;1911;53.768;11.474;2024-03-29T12:38:18;2.80;;;1.23;;
3791;SDS011;1911;53.768;11.474;2024-03-29T12:40:45;1.47;;;1.37;;
3791;SDS011;1911;53.768;11.474;2024-03-29T12:43:15;7.20;;;1.60;;
3791;SDS011;1911;53.768;11.474;2024-03-29T12:45:45;3.10;;;1.60;;
3791;SDS011;1911;53.768;11.474;2024-03-29T12:48:12;2.00;;;1.03;;
3791;SDS011;1911;53.768;11.474;2024-03-29T12:50:42;2.10;;;1.10;;
3791;SDS011;1911;53.768;11.474;2024-03-29T12:53:09;2.23;;;1.00;;
3791;SDS011;1911;53.768;11.474;2024-03-29T12:55:36;2.90;;;1.20;;
3791;SDS011;1911;53.768;11.474;2024-03-29T12:58:04;2.53;;;1.17;;
3791;SDS011;1911;53.768;11.474;2024-03-29T13:00:33;2.80;;;1.10;;
3791;SDS011;1911;53.768;11.474;2024-03-29T13:02:59;1.50;;;1.00;;
3791;SDS011;1911;53.768;11.474;2024-03-29T13:05:26;1.80;;;1.00;;
3791;SDS011;1911;53.768;11.474;2024-03-29T13:07:53;1.67;;;1.20;;
3791;SDS011;1911;53.768;11.474;2024-03-29T13:10:18;2.23;;;1.10;;
3791;SDS011;1911;53.768;11.474;2024-03-29T13:12:46;2.70;;;1.23;;
3791;SDS011;1911;53.768;11.474;2024-03-29T13:15:24;2.90;;;1.00;;
3791;SDS011;1911;53.768;11.474;2024-03-29T13:17:52;1.63;;;1.13;;
3791;SDS011;1911;53.768;11.474;2024-03-29T13:20:19;4.90;;;1.33;;
3791;SDS011;1911;53.768;11.474;2024-03-29T13:22:45;2.57;;;1.30;;
3791;SDS011;1911;53.768;11.474;2024-03-29T13:25:13;1.77;;;1.00;;
3791;SDS011;1911;53.768;11.474;2024-03-29T13:27:40;2.00;;;1.60;;
3791;SDS011;1911;53.768;11.474;2024-03-29T13:30:07;3.57;;;1.07;;
3791;SDS011;1911;53.768;11.474;2024-03-29T13:32:37;2.53;;;1.63;;
3791;SDS011;1911;53.768;11.474;2024-03-29T13:35:04;1.60;;;1.07;;
3791;SDS011;1911;53.768;11.474;2024-03-29T13:37:31;2.93;;;1.30;;
3791;SDS011;1911;53.768;11.474;2024-03-29T13:39:57;2.03;;;1.00;;
3791;SDS011;1911;53.768;11.474;2024-03-29T13:42:23;2.60;;;0.83;;
3791;SDS011;1911;53.768;11.474;2024-03-29T13:44:52;2.03;;;1.40;;
3791;SDS011;1911;53.768;11.474;2024-03-29T13:47:18;2.13;;;1.50;;
3791;SDS011;1911;53.768;11.474;2024-03-29T13:49:44;1.60;;;1.30;;
3791;SDS011;1911;53.768;11.474;2024-03-29T13:52:11;2.50;;;0.80;;
3791;SDS011;1911;53.768;11.474;2024-03-29T13:54:42;1.60;;;0.97;;
3791;SDS011;1911;53.768;11.474;2024-03-29T13:57:08;3.47;;;1.17;;
3791;SDS011;1911;53.768;11.474;2024-03-29T13:59:34;1.90;;;1.40;;
3791;SDS011;1911;53.768;11.474;2024-03-29T14:02:00;2.30;;;1.00;;
3791;SDS011;1911;53.768;11.474;2024-03-29T14:04:25;2.03;;;1.00;;
3791;SDS011;1911;53.768;11.474;2024-03-29T14:06:51;1.30;;;0.80;;
3791;SDS011;1911;53.768;11.474;2024-03-29T14:09:17;1.40;;;0.90;;
3791;SDS011;1911;53.768;11.474;2024-03-29T14:11:43;3.43;;;1.10;;
3791;SDS011;1911;53.768;11.474;2024-03-29T14:14:09;1.83;;;0.90;;
3791;SDS011;1911;53.768;11.474;2024-03-29T14:16:36;5.70;;;1.30;;
3791;SDS011;1911;53.768;11.474;2024-03-29T14:19:02;1.40;;;0.80;;
3791;SDS011;1911;53.768;11.474;2024-03-29T14:21:28;4.50;;;1.50;;
3791;SDS011;1911;53.768;11.474;2024-03-29T14:23:54;1.37;;;0.83;;
3791;SDS011;1911;53.768;11.474;2024-03-29T14:26:21;1.90;;;0.97;;
3791;SDS011;1911;53.768;11.474;2024-03-29T14:28:47;1.97;;;1.13;;
3791;SDS011;1911;53.768;11.474;2024-03-29T14:31:12;1.73;;;1.10;;
3791;SDS011;1911;53.768;11.474;2024-03-29T14:33:38;1.87;;;1.30;;
3791;SDS011;1911;53.768;11.474;2024-03-29T14:36:03;2.90;;;1.20;;
3791;SDS011;1911;53.768;11.474;2024-03-29T14:38:29;4.00;;;1.40;;
3791;SDS011;1911;53.768;11.474;2024-03-29T14:40:55;3.93;;;1.40;;
3791;SDS011;1911;53.768;11.474;2024-03-29T14:43:20;2.10;;;1.50;;
3791;SDS011;1911;53.768;11.474;2024-03-29T14:45:46;1.60;;;1.00;;
3791;SDS011;1911;53.768;11.474;2024-03-29T14:48:14;1.60;;;1.10;;
3791;SDS011;1911;53.768;11.474;2024-03-29T14:50:41;3.73;;;1.10;;
3791;SDS011;1911;53.768;11.474;2024-03-29T14:53:07;3.87;;;1.20;;
3791;SDS011;1911;53.768;11.474;2024-03-29T14:55:32;3.13;;;1.40;;
3791;SDS011;1911;53.768;11.474;2024-03-29T14:57:58;5.13;;;1.90;;